Time;durP1;ratioP1;P1;durP2;ratioP2;P2;SDS_P1;SDS_P2;PMS_P1;PMS_P2;Temp;Humidity;BMP_temperature;BMP_pressure;BME280_temperature;BME280_humidity;BME280_pressure;Samples;Min_cycle;Max_cycle;Signal;HPM_P1;HPM_P2
2024/03/23 00:01:41;;;;;;;13.63;5.68;;;6.50;99.90;;;;;;4995361;28;20070;-71
2024/03/23 00:04:09;;;;;;;14.15;4.88;;;6.50;99.90;;;;;;4995687;28;20076;-71
2024/03/23 00:06:35;;;;;;;14.20;5.93;;;6.50;99.90;;;;;;4979429;28;20056;-71
2024/03/23 00:09:03;;;;;;;12.40;6.88;;;6.50;99.90;;;;;;4979264;28;20072;-71
2024/03/23 00:11:30;;;;;;;20.92;6.63;;;6.50;99.90;;;;;;4995687;28;20046;-71
2024/03/23 00:13:57;;;;;;;13.80;6.22;;;6.50;99.90;;;;;;4995403;28;20475;-71
2024/03/23 00:16:25;;;;;;;14.75;5.65;;;6.50;99.90;;;;;;5011865;28;20038;-71
2024/03/23 00:18:52;;;;;;;13.07;5.20;;;6.50;99.90;;;;;;4979198;28;20054;-71
2024/03/23 00:21:19;;;;;;;27.48;6.15;;;6.50;99.90;;;;;;4995556;28;20075;-71
2024/03/23 00:23:46;;;;;;;17.55;7.07;;;6.50;99.90;;;;;;5011645;28;20049;-71
2024/03/23 00:26:13;;;;;;;15.52;6.57;;;6.40;99.90;;;;;;4995443;28;20053;-71
2024/03/23 00:28:40;;;;;;;24.88;5.38;;;6.40;99.90;;;;;;4995437;28;20399;-71
2024/03/23 00:31:07;;;;;;;16.95;6.13;;;6.60;99.90;;;;;;5011513;28;20042;-71
2024/03/23 00:33:35;;;;;;;12.93;6.22;;;6.50;99.90;;;;;;4994865;28;20062;-71
2024/03/23 00:36:02;;;;;;;14.15;4.25;;;6.40;99.90;;;;;;4994766;28;20041;-71
2024/03/23 00:38:29;;;;;;;14.40;6.32;;;6.40;99.90;;;;;;5011691;28;20041;-71
2024/03/23 00:40:58;;;;;;;20.50;6.07;;;6.50;99.90;;;;;;4995032;28;20056;-71
2024/03/23 00:43:26;;;;;;;7.90;3.22;;;6.40;99.90;;;;;;5011554;28;20088;-71
2024/03/23 00:45:53;;;;;;;13.35;5.40;;;6.40;99.90;;;;;;4994827;28;20049;-71
2024/03/23 00:48:20;;;;;;;17.88;6.47;;;6.40;99.90;;;;;;4995136;28;20046;-72
2024/03/23 00:50:47;;;;;;;10.60;3.53;;;6.40;99.90;;;;;;4994847;28;20384;-71
2024/03/23 00:53:14;;;;;;;17.08;5.10;;;6.40;99.90;;;;;;5011407;28;20096;-71
2024/03/23 00:55:41;;;;;;;16.40;6.05;;;6.40;99.90;;;;;;4994933;28;20096;-71
2024/03/23 00:58:08;;;;;;;18.77;5.88;;;6.40;99.90;;;;;;5011068;28;20043;-71
2024/03/23 01:00:34;;;;;;;13.52;5.15;;;6.40;99.90;;;;;;4995116;28;20042;-71
2024/03/23 01:03:00;;;;;;;12.50;4.90;;;6.40;99.90;;;;;;4995018;28;20125;-71
2024/03/23 01:05:26;;;;;;;13.45;3.97;;;6.40;99.90;;;;;;4978785;28;20447;-71
2024/03/23 01:07:52;;;;;;;15.43;4.32;;;6.40;99.90;;;;;;4978632;28;20042;-71
2024/03/23 01:10:18;;;;;;;22.15;6.03;;;6.30;99.90;;;;;;4978759;28;20057;-71
2024/03/23 01:12:44;;;;;;;14.10;7.15;;;6.30;99.90;;;;;;5011334;28;20046;-71
2024/03/23 01:15:10;;;;;;;10.32;4.05;;;6.20;99.90;;;;;;5010841;28;20034;-71
2024/03/23 01:17:36;;;;;;;24.08;8.15;;;6.20;99.90;;;;;;5011192;28;20049;-70
2024/03/23 01:20:03;;;;;;;12.80;4.80;;;6.10;99.90;;;;;;4994722;28;20034;-71
2024/03/23 01:22:28;;;;;;;13.05;5.15;;;6.10;99.90;;;;;;5011220;28;20511;-72
2024/03/23 01:24:54;;;;;;;12.52;5.28;;;6.00;99.90;;;;;;4994558;28;20042;-71
2024/03/23 01:27:20;;;;;;;18.00;4.35;;;6.00;99.90;;;;;;4994702;28;20385;-70
2024/03/23 01:29:47;;;;;;;16.90;5.45;;;5.90;99.90;;;;;;5011168;28;20077;-71
2024/03/23 01:32:13;;;;;;;14.43;4.00;;;5.90;99.90;;;;;;5010787;28;20057;-71
2024/03/23 01:34:39;;;;;;;8.77;3.25;;;5.90;99.90;;;;;;4994763;28;20084;-71
2024/03/23 01:37:05;;;;;;;14.95;4.20;;;5.80;99.90;;;;;;4994470;28;20054;-71
2024/03/23 01:39:31;;;;;;;21.95;4.38;;;5.80;99.90;;;;;;4994676;28;20053;-71
2024/03/23 01:41:57;;;;;;;21.77;4.88;;;5.80;99.90;;;;;;4994566;28;20073;-71
2024/03/23 01:44:23;;;;;;;9.00;3.92;;;5.70;99.90;;;;;;4994568;28;20046;-71
2024/03/23 01:46:49;;;;;;;12.43;5.80;;;5.70;99.90;;;;;;5014041;28;20077;-71
2024/03/23 01:49:16;;;;;;;16.60;4.55;;;5.60;99.90;;;;;;4997958;28;20399;-71
2024/03/23 01:51:43;;;;;;;20.02;5.65;;;5.60;99.90;;;;;;4998230;28;20053;-70
2024/03/23 01:54:09;;;;;;;16.40;5.03;;;5.50;99.90;;;;;;5014211;28;20046;-71
2024/03/23 01:56:36;;;;;;;14.75;3.33;;;5.40;99.90;;;;;;5014499;28;20084;-71
2024/03/23 01:59:03;;;;;;;11.82;4.30;;;5.40;99.90;;;;;;4997803;28;20041;-71
2024/03/23 02:01:29;;;;;;;16.45;5.40;;;5.40;99.90;;;;;;5014432;28;20041;-71
2024/03/23 02:03:55;;;;;;;18.52;5.82;;;5.30;99.90;;;;;;4997992;28;20046;-71
2024/03/23 02:06:22;;;;;;;13.13;4.25;;;5.20;99.90;;;;;;4981731;28;20053;-71
2024/03/23 02:08:48;;;;;;;10.88;4.57;;;5.20;99.90;;;;;;5014308;28;20057;-71
2024/03/23 02:11:14;;;;;;;17.73;5.68;;;5.10;99.90;;;;;;4997918;28;20053;-71
2024/03/23 02:13:40;;;;;;;17.92;8.38;;;5.00;99.90;;;;;;5014188;28;20057;-71
2024/03/23 02:16:07;;;;;;;19.10;4.70;;;4.90;99.90;;;;;;4997442;28;20050;-71
2024/03/23 02:18:33;;;;;;;14.95;6.97;;;4.90;99.90;;;;;;4997822;28;20048;-71
2024/03/23 02:20:59;;;;;;;13.20;4.72;;;4.80;99.90;;;;;;5013920;28;20487;-71
2024/03/23 02:23:25;;;;;;;16.00;5.65;;;4.70;99.90;;;;;;4997668;28;20052;-70
2024/03/23 02:25:53;;;;;;;14.25;5.35;;;4.70;99.90;;;;;;4981435;28;20061;-71
2024/03/23 02:28:19;;;;;;;8.77;3.22;;;4.60;99.90;;;;;;4997347;28;20041;-71
2024/03/23 02:30:46;;;;;;;11.93;4.18;;;4.50;99.90;;;;;;4981390;28;20159;-71
2024/03/23 02:33:11;;;;;;;16.25;3.75;;;4.50;99.90;;;;;;5013339;28;20411;-71
2024/03/23 02:35:38;;;;;;;2.92;2.63;;;4.40;99.90;;;;;;5013908;28;20509;-71
2024/03/23 02:38:04;;;;;;;13.70;4.70;;;4.40;99.90;;;;;;4996967;28;20042;-71
2024/03/23 02:40:30;;;;;;;19.00;4.18;;;4.30;99.90;;;;;;4997406;28;20042;-71
2024/03/23 02:42:56;;;;;;;7.53;2.95;;;4.30;99.90;;;;;;5013778;28;20045;-71
2024/03/23 02:45:22;;;;;;;12.88;4.22;;;4.20;99.90;;;;;;4996925;28;20049;-71
2024/03/23 02:47:51;;;;;;;13.98;4.40;;;4.20;99.90;;;;;;5013535;28;20419;-71
2024/03/23 02:50:21;;;;;;;13.85;5.30;;;4.30;99.90;;;;;;4996977;28;20046;-70
2024/03/23 02:52:47;;;;;;;20.08;7.07;;;4.10;99.90;;;;;;5013788;28;20038;-71
2024/03/23 02:55:13;;;;;;;11.88;3.97;;;4.20;99.90;;;;;;5013174;28;20095;-71
2024/03/23 02:57:41;;;;;;;17.35;4.55;;;4.10;99.90;;;;;;5012826;28;20053;-71
2024/03/23 03:00:07;;;;;;;16.30;4.75;;;4.10;99.90;;;;;;5013039;28;20476;-70
2024/03/23 03:02:33;;;;;;;13.57;4.18;;;4.10;99.90;;;;;;4997049;28;20034;-71
2024/03/23 03:04:59;;;;;;;22.55;5.05;;;4.10;99.90;;;;;;4980714;28;20484;-71
2024/03/23 03:07:26;;;;;;;15.30;5.43;;;4.10;99.90;;;;;;4996552;28;20045;-71
2024/03/23 03:09:52;;;;;;;12.57;5.00;;;4.00;99.90;;;;;;4996715;28;20042;-71
2024/03/23 03:12:18;;;;;;;25.52;6.43;;;4.00;99.90;;;;;;4996459;28;20514;-71
2024/03/23 03:14:43;;;;;;;5.88;5.32;;;4.00;99.90;;;;;;4996545;28;20057;-71
2024/03/23 03:17:09;;;;;;;8.65;4.50;;;4.00;99.90;;;;;;5012795;28;20045;-71
2024/03/23 03:19:35;;;;;;;15.65;4.78;;;4.00;99.90;;;;;;5013175;28;20562;-71
2024/03/23 03:22:01;;;;;;;10.35;4.43;;;4.10;99.90;;;;;;4996520;28;20503;-71
2024/03/23 03:24:27;;;;;;;9.90;4.55;;;4.00;99.90;;;;;;4996239;28;20042;-70
2024/03/23 03:26:53;;;;;;;11.85;4.28;;;4.00;99.90;;;;;;5012743;28;20045;-71
2024/03/23 03:29:19;;;;;;;11.00;2.75;;;4.10;99.90;;;;;;4996124;28;20133;-71
2024/03/23 03:31:46;;;;;;;20.65;6.40;;;4.10;99.90;;;;;;4996375;28;20046;-71
2024/03/23 03:34:12;;;;;;;6.40;3.15;;;4.20;99.90;;;;;;4996105;28;20034;-71
2024/03/23 03:36:38;;;;;;;9.55;3.47;;;4.20;99.90;;;;;;4996403;28;20403;-71
2024/03/23 03:39:04;;;;;;;3.60;2.03;;;4.20;99.90;;;;;;5012685;28;20403;-70
2024/03/23 03:41:31;;;;;;;7.10;3.83;;;4.40;99.90;;;;;;4979779;28;20042;-71
2024/03/23 03:44:01;;;;;;;10.05;3.97;;;4.20;99.90;;;;;;5012690;28;20049;-71
2024/03/23 03:46:28;;;;;;;5.60;4.05;;;4.30;99.90;;;;;;5012430;28;20042;-71
2024/03/23 03:48:54;;;;;;;16.33;4.75;;;4.40;99.90;;;;;;5012364;28;20041;-71
2024/03/23 03:51:20;;;;;;;17.70;4.35;;;4.40;99.90;;;;;;5012184;28;20463;-71
2024/03/23 03:53:46;;;;;;;4.78;3.50;;;4.30;99.90;;;;;;4979770;28;20057;-71
2024/03/23 03:56:13;;;;;;;10.82;4.63;;;4.30;99.90;;;;;;5011935;28;20045;-71
2024/03/23 03:58:40;;;;;;;11.88;6.47;;;4.30;99.90;;;;;;4995840;28;20042;-71
2024/03/23 04:01:06;;;;;;;8.02;3.88;;;4.30;99.90;;;;;;4973857;28;20065;-71
2024/03/23 04:03:32;;;;;;;16.90;4.00;;;4.30;99.90;;;;;;4986035;28;20049;-71
2024/03/23 04:05:58;;;;;;;9.57;3.88;;;4.30;99.90;;;;;;4979281;28;20050;-71
2024/03/23 04:08:24;;;;;;;16.55;5.00;;;4.30;99.90;;;;;;5011235;28;20518;-71
2024/03/23 04:10:50;;;;;;;4.45;3.05;;;4.20;99.90;;;;;;5011501;28;20053;-71
2024/03/23 04:13:16;;;;;;;10.90;5.93;;;4.20;99.90;;;;;;4979274;28;20046;-71
2024/03/23 04:15:42;;;;;;;13.80;4.68;;;4.20;99.90;;;;;;5011623;28;20037;-71
2024/03/23 04:18:09;;;;;;;11.70;4.35;;;4.30;99.90;;;;;;4995589;28;20918;-71
2024/03/23 04:20:35;;;;;;;16.30;4.32;;;4.20;99.90;;;;;;4995323;28;20053;-70
2024/03/23 04:23:01;;;;;;;8.68;3.30;;;4.10;99.90;;;;;;5011873;28;20407;-71
2024/03/23 04:25:27;;;;;;;14.60;4.38;;;4.00;99.90;;;;;;5011627;28;20068;-71
2024/03/23 04:27:53;;;;;;;5.82;4.60;;;4.00;99.90;;;;;;4995456;28;20479;-71
2024/03/23 04:30:19;;;;;;;8.18;4.97;;;4.00;99.90;;;;;;4995075;28;20077;-70
2024/03/23 04:32:45;;;;;;;11.00;3.97;;;4.00;99.90;;;;;;4995138;28;20060;-70
2024/03/23 04:35:11;;;;;;;8.57;3.88;;;3.90;99.90;;;;;;4995237;28;20049;-70
2024/03/23 04:37:37;;;;;;;13.38;6.38;;;3.90;99.90;;;;;;5011404;28;20042;-71
2024/03/23 04:40:04;;;;;;;11.70;4.78;;;3.90;99.90;;;;;;5011851;28;20084;-70
2024/03/23 04:42:31;;;;;;;5.97;3.13;;;3.80;99.90;;;;;;4995069;28;20049;-70
2024/03/23 04:44:57;;;;;;;11.55;4.05;;;3.70;99.90;;;;;;5011655;28;20507;-70
2024/03/23 04:47:23;;;;;;;9.90;4.70;;;3.70;99.90;;;;;;4995067;28;20045;-70
2024/03/23 04:49:49;;;;;;;13.70;5.80;;;3.60;99.90;;;;;;4995166;28;20100;-71
2024/03/23 04:52:16;;;;;;;5.15;3.15;;;3.60;99.90;;;;;;4978977;28;20054;-71
2024/03/23 04:54:42;;;;;;;11.80;6.05;;;3.50;99.90;;;;;;5011142;28;20091;-70
2024/03/23 04:57:08;;;;;;;15.27;4.03;;;3.50;99.90;;;;;;4995548;28;20053;-71
2024/03/23 04:59:34;;;;;;;10.75;5.50;;;3.50;99.90;;;;;;4994826;28;20042;-71
2024/03/23 05:02:00;;;;;;;15.50;4.47;;;3.50;99.90;;;;;;5011439;28;20038;-70
2024/03/23 05:04:27;;;;;;;4.88;3.30;;;3.50;99.90;;;;;;5011244;28;20045;-71
2024/03/23 05:06:53;;;;;;;9.60;3.47;;;3.50;99.90;;;;;;4994993;28;20056;-71
2024/03/23 05:09:19;;;;;;;2.85;2.58;;;3.60;99.90;;;;;;5011234;28;20050;-71
2024/03/23 05:11:45;;;;;;;13.57;5.38;;;3.70;99.90;;;;;;4995139;28;20042;-70
2024/03/23 05:14:15;;;;;;;9.85;4.93;;;3.80;99.90;;;;;;4994856;28;20105;-70
2024/03/23 05:16:41;;;;;;;7.05;5.03;;;3.80;99.90;;;;;;5010932;28;20038;-71
2024/03/23 05:19:07;;;;;;;10.70;4.60;;;4.00;99.90;;;;;;4995194;28;20080;-71
2024/03/23 05:21:33;;;;;;;17.98;6.40;;;4.00;99.90;;;;;;4997529;28;20041;-71
2024/03/23 05:23:59;;;;;;;6.20;3.15;;;4.20;99.90;;;;;;4998780;28;20046;-71
2024/03/23 05:26:25;;;;;;;5.53;4.97;;;4.00;99.90;;;;;;4998354;28;20050;-71
2024/03/23 05:28:51;;;;;;;7.70;5.15;;;4.00;99.90;;;;;;5015170;28;20084;-71
2024/03/23 05:31:28;;;;;;;5.97;2.47;;;4.10;99.90;;;;;;5014865;28;20431;-70
2024/03/23 05:33:54;;;;;;;4.75;3.22;;;4.10;99.90;;;;;;4998714;28;20046;-70
2024/03/23 05:36:20;;;;;;;5.85;2.72;;;4.10;99.90;;;;;;4998520;28;20060;-71
2024/03/23 05:38:46;;;;;;;6.93;4.15;;;4.00;99.90;;;;;;4998565;28;20045;-71
2024/03/23 05:41:12;;;;;;;14.48;5.72;;;4.00;99.90;;;;;;4998608;28;20045;-70
2024/03/23 05:43:38;;;;;;;7.65;5.10;;;4.00;99.90;;;;;;4998129;28;20038;-71
2024/03/23 05:46:10;;;;;;;9.93;4.47;;;4.00;99.90;;;;;;4998298;28;20038;-71
2024/03/23 05:48:36;;;;;;;7.50;4.18;;;4.00;99.90;;;;;;5014670;28;20053;-71
2024/03/23 05:51:02;;;;;;;10.77;5.07;;;4.00;99.90;;;;;;5014534;28;20128;-71
2024/03/23 05:53:30;;;;;;;10.52;4.45;;;4.00;99.90;;;;;;4997867;28;20068;-71
2024/03/23 05:56:06;;;;;;;10.07;3.05;;;4.00;99.90;;;;;;5014334;28;20431;-71
2024/03/23 05:58:33;;;;;;;4.63;3.00;;;4.10;99.90;;;;;;5014451;28;20042;-71
2024/03/23 06:01:01;;;;;;;10.32;4.45;;;4.10;99.90;;;;;;5008079;28;20034;-71
2024/03/23 06:03:28;;;;;;;3.47;2.88;;;4.10;99.90;;;;;;4995270;28;20385;-71
2024/03/23 06:05:54;;;;;;;10.52;3.72;;;4.20;99.90;;;;;;5011351;28;20053;-71
2024/03/23 06:08:20;;;;;;;4.00;2.90;;;4.30;99.90;;;;;;4997704;28;20088;-71
2024/03/23 06:10:47;;;;;;;5.32;3.50;;;4.30;99.90;;;;;;5013913;28;20045;-70
2024/03/23 06:13:13;;;;;;;10.23;3.90;;;4.30;99.90;;;;;;5014007;28;20054;-71
2024/03/23 06:15:39;;;;;;;8.32;3.97;;;4.30;99.90;;;;;;5013595;28;20034;-71
2024/03/23 06:18:07;;;;;;;6.80;3.20;;;4.60;99.90;;;;;;4997755;28;20057;-71
2024/03/23 06:20:34;;;;;;;3.55;2.72;;;4.50;99.90;;;;;;5013821;28;20511;-70
2024/03/23 06:23:02;;;;;;;8.52;4.38;;;4.50;99.90;;;;;;4997797;28;20041;-71
2024/03/23 06:25:28;;;;;;;8.40;3.78;;;4.60;99.90;;;;;;4981364;28;20290;-71
2024/03/23 06:27:54;;;;;;;9.77;4.05;;;4.70;99.90;;;;;;4997390;28;20042;-70
2024/03/23 06:30:20;;;;;;;8.18;4.60;;;4.80;99.90;;;;;;5013552;28;20037;-71
2024/03/23 06:32:46;;;;;;;5.72;4.53;;;5.00;99.90;;;;;;4996003;28;20064;-71
2024/03/23 06:35:12;;;;;;;6.50;4.57;;;5.20;99.90;;;;;;5013586;28;20033;-72
2024/03/23 06:37:40;;;;;;;6.00;3.78;;;5.40;99.90;;;;;;4997058;28;20045;-71
2024/03/23 06:40:09;;;;;;;10.30;4.05;;;5.80;99.90;;;;;;5013748;28;20089;-72
2024/03/23 06:42:36;;;;;;;8.15;3.30;;;6.30;99.90;;;;;;4997395;28;20099;-71
2024/03/23 06:45:04;;;;;;;12.50;3.72;;;7.00;99.90;;;;;;5013442;28;20053;-71
2024/03/23 06:47:30;;;;;;;9.48;3.75;;;7.50;99.90;;;;;;4997044;28;20503;-72
2024/03/23 06:49:56;;;;;;;7.53;2.35;;;7.40;99.90;;;;;;5013337;28;20046;-73
2024/03/23 06:52:22;;;;;;;7.22;2.50;;;6.90;99.90;;;;;;4980911;28;20419;-72
2024/03/23 06:54:48;;;;;;;9.32;2.13;;;6.50;99.90;;;;;;5013029;28;20053;-72
2024/03/23 06:57:14;;;;;;;3.75;2.67;;;6.20;99.90;;;;;;4996922;28;20052;-71
2024/03/23 06:59:40;;;;;;;3.17;2.85;;;6.00;99.90;;;;;;4996766;28;20033;-72
2024/03/23 07:02:09;;;;;;;7.80;3.35;;;5.90;99.90;;;;;;5013255;28;20129;-72
2024/03/23 07:04:36;;;;;;;5.53;2.50;;;5.80;99.90;;;;;;4996872;28;20050;-71
2024/03/23 07:07:02;;;;;;;4.65;3.47;;;5.70;99.90;;;;;;4996963;28;20034;-72
2024/03/23 07:09:29;;;;;;;4.53;2.85;;;5.70;99.90;;;;;;4996633;28;20046;-72
2024/03/23 07:11:57;;;;;;;2.53;1.52;;;5.70;99.90;;;;;;4996709;28;20397;-72
2024/03/23 07:14:26;;;;;;;1.52;1.42;;;5.70;99.90;;;;;;4996572;28;20088;-72
2024/03/23 07:16:52;;;;;;;4.38;2.90;;;5.60;99.90;;;;;;4980152;28;20049;-71
2024/03/23 07:19:18;;;;;;;4.45;2.72;;;5.60;99.90;;;;;;4996661;28;20046;-72
2024/03/23 07:21:45;;;;;;;5.57;3.78;;;5.70;99.90;;;;;;5012562;28;20106;-72
2024/03/23 07:24:11;;;;;;;3.55;2.65;;;5.80;99.90;;;;;;4996445;28;20045;-72
2024/03/23 07:26:38;;;;;;;7.35;1.85;;;6.00;99.90;;;;;;4996482;28;20403;-71
2024/03/23 07:29:05;;;;;;;3.50;3.05;;;6.00;99.90;;;;;;4996240;28;20054;-71
2024/03/23 07:31:31;;;;;;;5.05;2.95;;;6.00;99.90;;;;;;5012622;28;20514;-71
2024/03/23 07:33:57;;;;;;;9.00;2.75;;;6.10;99.90;;;;;;4996071;28;20054;-71
2024/03/23 07:36:23;;;;;;;3.90;1.58;;;6.20;99.90;;;;;;4980066;28;20049;-71
2024/03/23 07:38:49;;;;;;;5.28;2.60;;;6.20;99.90;;;;;;4979941;28;20042;-70
2024/03/23 07:41:17;;;;;;;1.85;1.75;;;6.30;99.90;;;;;;4980081;28;20049;-70
2024/03/23 07:43:45;;;;;;;4.63;2.58;;;6.60;99.90;;;;;;4995659;28;20052;-71
2024/03/23 07:46:11;;;;;;;5.05;3.05;;;7.20;99.90;;;;;;5012374;28;20053;-71
2024/03/23 07:48:39;;;;;;;8.40;2.50;;;8.30;99.90;;;;;;4995948;28;20045;-71
2024/03/23 07:51:06;;;;;;;6.43;2.95;;;8.80;99.90;;;;;;4979781;28;20049;-71
2024/03/23 07:53:33;;;;;;;2.42;2.13;;;9.20;99.90;;;;;;4995738;28;20065;-71
2024/03/23 07:56:00;;;;;;;3.90;1.50;;;9.60;99.90;;;;;;4979410;28;20411;-71
2024/03/23 07:58:26;;;;;;;3.80;1.65;;;9.90;99.90;;;;;;5012114;28;20056;-71
2024/03/23 08:00:53;;;;;;;3.40;1.40;;;10.60;99.90;;;;;;5011843;28;20038;-71
2024/03/23 08:03:19;;;;;;;4.88;2.60;;;11.00;99.90;;;;;;5011935;28;20034;-70
2024/03/23 08:05:45;;;;;;;4.30;2.20;;;10.80;99.90;;;;;;4995548;28;20092;-71
2024/03/23 08:08:12;;;;;;;2.13;1.88;;;10.30;99.90;;;;;;4995664;28;20038;-71
2024/03/23 08:10:47;;;;;;;4.00;2.88;;;10.20;99.90;;;;;;5011878;28;20037;-71
2024/03/23 08:13:13;;;;;;;2.97;2.67;;;10.60;99.90;;;;;;5011880;28;20048;-72
2024/03/23 08:15:39;;;;;;;2.47;2.28;;;10.60;99.90;;;;;;5011830;28;20044;-71
2024/03/23 08:18:05;;;;;;;4.25;1.83;;;10.30;99.90;;;;;;5011699;28;20074;-71
2024/03/23 08:20:31;;;;;;;2.17;1.63;;;9.90;99.90;;;;;;5011876;28;20480;-71
2024/03/23 08:22:57;;;;;;;3.38;1.45;;;9.60;99.90;;;;;;4995194;28;20092;-71
2024/03/23 08:25:23;;;;;;;3.17;2.83;;;9.50;99.90;;;;;;4995432;28;20042;-71
2024/03/23 08:27:49;;;;;;;8.00;2.67;;;9.80;99.90;;;;;;4995076;28;20050;-71
2024/03/23 08:30:16;;;;;;;3.03;2.22;;;10.50;99.90;;;;;;4995408;28;20034;-71
2024/03/23 08:32:42;;;;;;;7.78;2.40;;;11.20;99.90;;;;;;5011515;28;20058;-71
2024/03/23 08:35:08;;;;;;;3.63;2.10;;;11.30;99.90;;;;;;4994818;28;20061;-72
2024/03/23 08:37:34;;;;;;;7.07;2.25;;;10.80;99.90;;;;;;4979178;28;20037;-70
2024/03/23 08:40:00;;;;;;;3.47;1.50;;;10.20;99.90;;;;;;5011281;28;20044;-71
2024/03/23 08:42:26;;;;;;;3.25;1.70;;;9.70;99.90;;;;;;4994970;28;20084;-70
2024/03/23 08:44:52;;;;;;;5.03;1.95;;;9.10;99.90;;;;;;5011512;28;20038;-70
2024/03/23 08:47:18;;;;;;;2.47;1.98;;;8.80;99.90;;;;;;4995204;28;20152;-70
2024/03/23 08:49:44;;;;;;;3.40;1.58;;;8.50;99.90;;;;;;4979066;28;20046;-70
2024/03/23 08:52:10;;;;;;;10.75;1.98;;;8.30;99.90;;;;;;4994886;28;20041;-70
2024/03/23 08:54:36;;;;;;;5.80;2.15;;;8.20;99.90;;;;;;5011226;28;20096;-70
2024/03/23 08:57:03;;;;;;;5.25;2.20;;;8.10;99.90;;;;;;4994515;28;20102;-70
2024/03/23 08:59:29;;;;;;;5.97;2.75;;;8.00;99.90;;;;;;4995073;28;20053;-71
2024/03/23 09:01:55;;;;;;;4.97;1.55;;;7.80;99.90;;;;;;4994798;28;20435;-70
2024/03/23 09:04:21;;;;;;;4.13;1.65;;;7.70;99.90;;;;;;4978600;28;20076;-71
2024/03/23 09:06:47;;;;;;;7.32;2.25;;;7.90;99.90;;;;;;4978933;28;20104;-70
2024/03/23 09:09:13;;;;;;;3.75;1.67;;;8.50;99.90;;;;;;5011035;28;20164;-71
2024/03/23 09:11:39;;;;;;;4.70;1.80;;;9.10;99.90;;;;;;4978570;28;20064;-71
2024/03/23 09:14:05;;;;;;;5.53;2.70;;;9.70;99.90;;;;;;5010969;28;20049;-71
2024/03/23 09:16:31;;;;;;;3.22;2.33;;;10.40;99.90;;;;;;4994891;28;20050;-71
2024/03/23 09:18:57;;;;;;;7.15;1.50;;;10.90;99.90;;;;;;4978506;28;20053;-71
2024/03/23 09:21:23;;;;;;;4.28;2.00;;;11.70;99.90;;;;;;4995008;28;20540;-71
2024/03/23 09:23:49;;;;;;;1.95;1.25;;;12.60;99.90;;;;;;4978623;28;20399;-71
2024/03/23 09:26:15;;;;;;;5.90;2.17;;;13.10;99.90;;;;;;4994745;28;20038;-71
2024/03/23 09:28:41;;;;;;;7.47;2.00;;;13.50;99.90;;;;;;4994727;28;20099;-71
2024/03/23 09:31:08;;;;;;;5.97;1.60;;;14.00;99.30;;;;;;4994679;28;20133;-72
2024/03/23 09:33:35;;;;;;;3.53;1.60;;;14.30;98.40;;;;;;5011292;28;20411;-71
2024/03/23 09:36:05;;;;;;;6.93;2.45;;;14.30;96.50;;;;;;4994433;28;20149;-71
2024/03/23 09:38:31;;;;;;;6.88;2.28;;;14.20;94.90;;;;;;4994903;28;20054;-71
2024/03/23 09:40:59;;;;;;;3.83;2.22;;;14.00;95.40;;;;;;5010839;28;20041;-71
2024/03/23 09:43:25;;;;;;;4.65;1.75;;;14.00;96.00;;;;;;5011024;28;20030;-71
2024/03/23 09:45:52;;;;;;;3.83;2.33;;;13.70;93.20;;;;;;4994648;28;20053;-70
2024/03/23 09:48:18;;;;;;;6.18;1.85;;;12.70;94.20;;;;;;5010678;28;20483;-71
2024/03/23 09:50:45;;;;;;;4.57;2.00;;;11.80;94.90;;;;;;5010824;28;20046;-71
2024/03/23 09:53:13;;;;;;;3.88;2.05;;;10.80;95.50;;;;;;5010589;28;20056;-70
2024/03/23 09:55:41;;;;;;;7.65;3.20;;;10.20;97.60;;;;;;4994431;28;20108;-71
2024/03/23 09:58:08;;;;;;;9.35;3.20;;;9.80;98.00;;;;;;5010611;28;20046;-71
2024/03/23 10:00:34;;;;;;;2.33;1.42;;;10.00;99.00;;;;;;4994309;28;20412;-71
2024/03/23 10:03:04;;;;;;;4.50;2.00;;;9.90;99.90;;;;;;4978407;28;20053;-71
2024/03/23 10:05:37;;;;;;;5.22;1.35;;;9.40;99.90;;;;;;4994466;28;20061;-71
2024/03/23 10:08:15;;;;;;;4.90;1.70;;;10.00;99.90;;;;;;4980132;28;20408;-71
2024/03/23 10:10:42;;;;;;;7.03;3.10;;;11.00;99.90;;;;;;4981690;28;20057;-71
2024/03/23 10:13:08;;;;;;;3.58;2.55;;;11.70;99.90;;;;;;5014105;28;20042;-71
2024/03/23 10:15:35;;;;;;;3.58;2.22;;;12.40;99.90;;;;;;5014027;28;20074;-71
2024/03/23 10:18:22;;;;;;;3.85;1.73;;;13.10;98.30;;;;;;5013313;28;20037;-71
2024/03/23 10:20:52;;;;;;;4.70;2.42;;;13.00;96.00;;;;;;5013064;28;20522;-70
2024/03/23 10:23:18;;;;;;;5.95;2.38;;;12.30;94.70;;;;;;5013108;28;20038;-71
2024/03/23 10:25:45;;;;;;;5.78;2.25;;;11.50;96.10;;;;;;5013270;28;20038;-72
2024/03/23 10:28:11;;;;;;;10.55;3.38;;;11.40;97.80;;;;;;4980758;28;20034;-71
2024/03/23 10:30:38;;;;;;;6.35;2.30;;;11.60;96.70;;;;;;5013031;28;20052;-71
2024/03/23 10:33:11;;;;;;;5.50;2.97;;;11.80;96.60;;;;;;5013588;28;20049;-70
2024/03/23 10:35:38;;;;;;;5.10;2.25;;;11.00;95.50;;;;;;5013993;28;20165;-70
2024/03/23 10:38:08;;;;;;;8.20;1.83;;;10.40;96.20;;;;;;4997488;28;20053;-71
2024/03/23 10:40:37;;;;;;;5.38;2.72;;;9.80;97.60;;;;;;4981477;28;20484;-71
2024/03/23 10:43:04;;;;;;;8.32;2.20;;;9.60;97.80;;;;;;5013651;28;20045;-70
2024/03/23 10:45:30;;;;;;;7.55;2.17;;;9.50;98.40;;;;;;4997048;28;20053;-70
2024/03/23 10:47:57;;;;;;;6.60;2.13;;;9.40;98.50;;;;;;4997206;28;20101;-71
2024/03/23 10:50:23;;;;;;;4.45;2.05;;;9.30;99.10;;;;;;4985005;28;20056;-71
2024/03/23 10:52:52;;;;;;;2.13;1.38;;;9.20;99.90;;;;;;5013153;28;20069;-72
2024/03/23 10:55:20;;;;;;;4.93;2.13;;;8.90;99.90;;;;;;4980636;28;20108;-71
2024/03/23 10:57:54;;;;;;;3.15;2.13;;;8.60;99.90;;;;;;5013438;28;20038;-71
2024/03/23 11:00:21;;;;;;;4.72;1.33;;;8.30;99.90;;;;;;4996611;28;20037;-71
2024/03/23 11:02:50;;;;;;;6.70;2.13;;;8.00;99.90;;;;;;4997152;28;20048;-72
2024/03/23 11:05:51;;;;;;;3.17;1.67;;;8.50;99.90;;;;;;5013017;28;20045;-72
2024/03/23 11:08:45;;;;;;;6.13;2.25;;;9.60;99.90;;;;;;4996818;28;20045;-72
2024/03/23 11:11:22;;;;;;;6.38;2.30;;;10.80;99.90;;;;;;4992962;28;20107;-71
2024/03/23 11:13:50;;;;;;;5.55;1.58;;;11.70;99.90;;;;;;5013191;28;20045;-72
2024/03/23 11:16:32;;;;;;;1.80;1.00;;;12.50;97.20;;;;;;4996498;28;20049;-72
2024/03/23 11:19:36;;;;;;;5.05;2.00;;;13.20;97.40;;;;;;5012631;28;20042;-72
2024/03/23 11:22:03;;;;;;;2.13;0.88;;;13.40;93.80;;;;;;4984508;28;20103;-71
2024/03/23 11:24:29;;;;;;;2.72;1.20;;;12.40;94.80;;;;;;4996327;28;20388;-71
2024/03/23 11:26:55;;;;;;;1.60;0.77;;;10.60;96.00;;;;;;4996715;28;20387;-72
2024/03/23 11:29:21;;;;;;;4.10;1.45;;;9.40;97.30;;;;;;4996286;28;20521;-71
2024/03/23 11:31:48;;;;;;;1.52;1.08;;;8.60;98.40;;;;;;4996308;28;20062;-71
2024/03/23 11:34:18;;;;;;;1.63;1.23;;;8.40;99.90;;;;;;4996436;28;20045;-71
2024/03/23 11:36:45;;;;;;;2.70;1.30;;;8.80;99.90;;;;;;5012651;28;20057;-71
2024/03/23 11:39:16;;;;;;;3.83;1.67;;;9.60;99.90;;;;;;5012499;28;20038;-71
2024/03/23 11:42:08;;;;;;;2.85;1.15;;;10.20;99.90;;;;;;5012878;28;20045;-71
2024/03/23 11:44:35;;;;;;;2.83;1.33;;;10.80;99.90;;;;;;4994213;28;20045;-72
2024/03/23 11:47:08;;;;;;;4.32;1.30;;;11.50;98.60;;;;;;5012571;28;20042;-72
2024/03/23 11:49:40;;;;;;;7.72;2.58;;;12.30;98.30;;;;;;4996054;28;20049;-72
2024/03/23 11:52:07;;;;;;;5.47;1.70;;;12.80;94.00;;;;;;4996015;28;20407;-72
2024/03/23 11:54:33;;;;;;;2.47;1.55;;;13.20;95.80;;;;;;4995751;28;20092;-71
2024/03/23 11:57:07;;;;;;;2.53;1.33;;;13.70;95.30;;;;;;4996222;28;20454;-72
2024/03/23 11:59:39;;;;;;;2.78;1.52;;;14.00;94.50;;;;;;5012115;28;20042;-72
2024/03/23 12:02:16;;;;;;;2.45;1.35;;;14.20;93.80;;;;;;4995810;28;20104;-71
2024/03/23 12:04:42;;;;;;;4.30;1.08;;;13.90;93.50;;;;;;4995812;28;20403;-72
2024/03/23 12:07:18;;;;;;;1.65;0.82;;;13.10;94.30;;;;;;5012227;28;20050;-72
2024/03/23 12:09:46;;;;;;;4.57;0.98;;;12.20;96.30;;;;;;5012202;28;20038;-71
2024/03/23 12:12:18;;;;;;;1.42;0.63;;;12.00;97.50;;;;;;5012148;28;20042;-72
2024/03/23 12:15:00;;;;;;;1.73;0.80;;;11.90;97.30;;;;;;5011937;28;20046;-71
2024/03/23 12:17:26;;;;;;;2.13;1.70;;;11.80;97.80;;;;;;5011699;28;20068;-72
2024/03/23 12:19:52;;;;;;;4.88;1.65;;;11.70;95.90;;;;;;4995476;28;20049;-71
2024/03/23 12:22:22;;;;;;;1.83;1.00;;;11.50;96.00;;;;;;5011897;28;20050;-71
2024/03/23 12:24:49;;;;;;;1.10;0.65;;;11.40;95.90;;;;;;4995495;28;20053;-72
2024/03/23 12:27:15;;;;;;;2.55;1.48;;;11.10;95.30;;;;;;4995324;28;20058;-72
2024/03/23 12:29:43;;;;;;;1.05;1.05;;;10.50;95.40;;;;;;4994900;28;20046;-72
2024/03/23 12:32:09;;;;;;;3.47;0.98;;;9.40;96.40;;;;;;5011592;28;20418;-72
2024/03/23 12:34:35;;;;;;;3.50;1.42;;;8.40;98.20;;;;;;4995224;28;20061;-71
2024/03/23 12:37:01;;;;;;;4.78;2.33;;;8.00;99.90;;;;;;4995193;28;20530;-72
2024/03/23 12:39:27;;;;;;;3.72;1.52;;;7.50;99.90;;;;;;4978715;28;20034;-71
2024/03/23 12:41:53;;;;;;;4.13;1.35;;;7.80;99.90;;;;;;4995257;28;20038;-72
2024/03/23 12:44:19;;;;;;;3.10;0.80;;;8.50;99.90;;;;;;4995226;28;20053;-71
2024/03/23 12:46:45;;;;;;;4.68;1.63;;;9.40;99.90;;;;;;4979136;28;20053;-71
2024/03/23 12:49:11;;;;;;;3.47;1.30;;;10.30;99.90;;;;;;4995448;28;20045;-71
2024/03/23 12:51:38;;;;;;;1.30;1.25;;;11.30;99.90;;;;;;4995067;28;20107;-72